createdAt,value
2023-03-23T16:00:31.798Z,46.80
2023-03-23T16:05:36.133Z,46.80
2023-03-23T16:10:42.814Z,46.80
2023-03-23T16:15:49.281Z,46.90
2023-03-23T16:20:52.605Z,46.90
2023-03-23T16:25:55.877Z,46.90
2023-03-23T16:31:00.724Z,47.00
2023-03-23T16:36:05.038Z,46.90
2023-03-23T16:41:08.992Z,47.10
2023-03-23T16:46:17.602Z,47.00
2023-03-23T16:51:21.382Z,47.00
2023-03-23T16:56:24.895Z,47.20
2023-03-23T17:01:29.672Z,47.20
2023-03-23T17:06:33.032Z,47.40
2023-03-23T17:11:36.365Z,47.50
2023-03-23T17:16:41.185Z,47.60
2023-03-23T17:21:44.941Z,47.50
2023-03-23T17:26:49.445Z,47.70
2023-03-23T17:31:54.709Z,47.80
2023-03-23T17:36:59.564Z,47.80
2023-03-23T17:42:04.100Z,48.00
2023-03-23T17:47:10.340Z,48.10
2023-03-23T17:52:16.994Z,48.20
2023-03-23T17:57:21.107Z,48.40
2023-03-23T18:02:28.128Z,48.60
2023-03-23T18:07:32.859Z,48.60
2023-03-23T18:12:37.732Z,48.60
2023-03-23T18:17:45.721Z,48.70
2023-03-23T18:22:51.164Z,48.70
2023-03-23T18:27:56.758Z,48.80
2023-03-23T18:33:11.376Z,48.90
2023-03-23T18:38:20.323Z,49.10
2023-03-23T18:43:25.278Z,49.10
2023-03-23T18:48:32.365Z,49.20
2023-03-23T18:53:39.357Z,49.20
2023-03-23T18:58:44.492Z,49.50
2023-03-23T19:03:52.100Z,49.40
2023-03-23T19:08:57.507Z,49.70
2023-03-23T19:14:03.552Z,49.70
2023-03-23T19:19:11.125Z,49.80
2023-03-23T19:24:17.012Z,50.00
2023-03-23T19:34:37.268Z,50.10
2023-03-23T19:39:44.807Z,50.20
2023-03-23T19:44:51.308Z,50.30
2023-03-23T19:50:00.963Z,50.40
2023-03-23T19:55:06.776Z,50.50
2023-03-23T20:00:15.281Z,50.60
2023-03-23T20:05:23.396Z,50.60
2023-03-23T20:10:30.066Z,50.70
2023-03-23T20:15:35.798Z,50.70
2023-03-23T20:20:45.577Z,50.90
2023-03-23T20:25:51.770Z,51.10
2023-03-23T20:31:17.026Z,51.00
2023-03-23T20:36:30.638Z,51.30
2023-03-23T20:41:39.263Z,51.20
2023-03-23T20:46:44.398Z,51.30
2023-03-23T20:51:55.268Z,51.20
2023-03-23T20:57:00.040Z,51.50
2023-03-23T21:02:06.018Z,51.30
2023-03-23T21:07:15.073Z,51.40
2023-03-23T21:12:20.878Z,51.70
2023-03-23T21:17:26.196Z,51.80
2023-03-23T21:22:32.502Z,51.80
2023-03-23T21:27:37.400Z,51.80
2023-03-23T21:32:41.579Z,51.70
2023-03-23T21:37:48.702Z,51.80
2023-03-23T21:42:53.329Z,52.00
2023-03-23T21:47:58.193Z,51.90
2023-03-23T21:53:03.389Z,51.90
2023-03-23T21:58:08.053Z,52.10
2023-03-23T22:03:11.420Z,52.20
2023-03-23T22:08:17.335Z,52.20
2023-03-23T22:13:20.695Z,52.30
2023-03-23T22:18:24.020Z,52.30
2023-03-23T22:23:29.098Z,52.30
2023-03-23T22:28:34.157Z,52.40
2023-03-23T22:33:38.647Z,52.40
2023-03-23T22:38:45.611Z,52.40
2023-03-23T22:43:49.521Z,52.50
2023-03-23T22:48:52.871Z,52.50
2023-03-23T22:53:57.718Z,52.60
2023-03-23T22:59:02.089Z,52.70
2023-03-23T23:04:06.473Z,52.70
2023-03-23T23:09:11.608Z,52.80
2023-03-23T23:14:14.955Z,52.90
2023-03-23T23:19:18.345Z,52.90
2023-03-23T23:24:23.220Z,53.10
2023-03-23T23:29:26.912Z,53.10
2023-03-23T23:34:30.422Z,53.10
2023-03-23T23:39:38.269Z,53.20
2023-03-23T23:44:43.340Z,53.30
2023-03-23T23:49:46.720Z,53.40
2023-03-23T23:54:52.667Z,53.40
2023-03-23T23:59:56.166Z,53.50
